sensor_id;sensor_type;location;lat;lon;timestamp;P1;durP1;ratioP1;P2;durP2;ratioP2
7375;SDS011;3728;42.266;24.944;2023-04-08T00:02:26;11.87;;;9.30;;
7375;SDS011;3728;42.266;24.944;2023-04-08T00:04:53;10.87;;;9.43;;
7375;SDS011;3728;42.266;24.944;2023-04-08T00:07:21;11.73;;;9.13;;
7375;SDS011;3728;42.266;24.944;2023-04-08T00:09:49;11.80;;;10.10;;
7375;SDS011;3728;42.266;24.944;2023-04-08T00:12:17;10.57;;;9.47;;
7375;SDS011;3728;42.266;24.944;2023-04-08T00:14:45;9.70;;;8.80;;
7375;SDS011;3728;42.266;24.944;2023-04-08T00:17:13;11.03;;;8.97;;
7375;SDS011;3728;42.266;24.944;2023-04-08T00:19:41;10.80;;;8.97;;
7375;SDS011;3728;42.266;24.944;2023-04-08T00:22:09;10.23;;;9.13;;
7375;SDS011;3728;42.266;24.944;2023-04-08T00:24:37;12.00;;;8.70;;
7375;SDS011;3728;42.266;24.944;2023-04-08T00:27:06;12.10;;;10.37;;
7375;SDS011;3728;42.266;24.944;2023-04-08T00:29:33;11.73;;;9.97;;
7375;SDS011;3728;42.266;24.944;2023-04-08T00:32:01;9.83;;;8.80;;
7375;SDS011;3728;42.266;24.944;2023-04-08T00:34:29;10.00;;;8.57;;
7375;SDS011;3728;42.266;24.944;2023-04-08T00:36:56;11.17;;;9.17;;
7375;SDS011;3728;42.266;24.944;2023-04-08T00:39:26;10.37;;;8.80;;
7375;SDS011;3728;42.266;24.944;2023-04-08T00:41:54;11.67;;;8.87;;
7375;SDS011;3728;42.266;24.944;2023-04-08T00:44:22;11.30;;;9.20;;
7375;SDS011;3728;42.266;24.944;2023-04-08T00:46:50;11.27;;;9.27;;
7375;SDS011;3728;42.266;24.944;2023-04-08T00:49:18;10.33;;;9.33;;
7375;SDS011;3728;42.266;24.944;2023-04-08T00:51:46;10.00;;;8.90;;
7375;SDS011;3728;42.266;24.944;2023-04-08T00:54:13;10.93;;;9.00;;
7375;SDS011;3728;42.266;24.944;2023-04-08T00:56:41;9.77;;;8.30;;
7375;SDS011;3728;42.266;24.944;2023-04-08T00:59:10;11.30;;;9.83;;
7375;SDS011;3728;42.266;24.944;2023-04-08T01:01:54;12.80;;;8.60;;
7375;SDS011;3728;42.266;24.944;2023-04-08T01:07:51;10.10;;;8.67;;
7375;SDS011;3728;42.266;24.944;2023-04-08T01:10:20;10.23;;;8.70;;
7375;SDS011;3728;42.266;24.944;2023-04-08T01:12:55;13.53;;;9.40;;
7375;SDS011;3728;42.266;24.944;2023-04-08T01:15:30;9.67;;;8.63;;
7375;SDS011;3728;42.266;24.944;2023-04-08T01:18:05;12.03;;;9.40;;
7375;SDS011;3728;42.266;24.944;2023-04-08T01:20:34;11.00;;;9.37;;
7375;SDS011;3728;42.266;24.944;2023-04-08T01:23:09;10.67;;;9.13;;
7375;SDS011;3728;42.266;24.944;2023-04-08T01:26:01;11.57;;;9.37;;
7375;SDS011;3728;42.266;24.944;2023-04-08T01:28:29;10.63;;;9.27;;
7375;SDS011;3728;42.266;24.944;2023-04-08T01:30:58;12.17;;;10.10;;
7375;SDS011;3728;42.266;24.944;2023-04-08T01:33:28;13.23;;;10.40;;
7375;SDS011;3728;42.266;24.944;2023-04-08T01:35:57;12.33;;;11.03;;
7375;SDS011;3728;42.266;24.944;2023-04-08T01:38:27;14.77;;;11.30;;
7375;SDS011;3728;42.266;24.944;2023-04-08T01:40:58;13.93;;;11.77;;
7375;SDS011;3728;42.266;24.944;2023-04-08T01:43:28;14.77;;;11.37;;
7375;SDS011;3728;42.266;24.944;2023-04-08T01:45:57;15.67;;;11.73;;
7375;SDS011;3728;42.266;24.944;2023-04-08T01:48:27;14.33;;;11.70;;
7375;SDS011;3728;42.266;24.944;2023-04-08T01:50:55;17.70;;;12.70;;
7375;SDS011;3728;42.266;24.944;2023-04-08T01:53:24;12.53;;;11.20;;
7375;SDS011;3728;42.266;24.944;2023-04-08T01:55:54;15.17;;;12.20;;
7375;SDS011;3728;42.266;24.944;2023-04-08T01:58:30;14.37;;;11.77;;
7375;SDS011;3728;42.266;24.944;2023-04-08T02:01:05;14.63;;;11.43;;
7375;SDS011;3728;42.266;24.944;2023-04-08T02:03:38;14.10;;;12.30;;
7375;SDS011;3728;42.266;24.944;2023-04-08T02:06:08;14.13;;;12.40;;
7375;SDS011;3728;42.266;24.944;2023-04-08T02:08:36;14.07;;;11.53;;
7375;SDS011;3728;42.266;24.944;2023-04-08T02:11:04;14.27;;;10.50;;
7375;SDS011;3728;42.266;24.944;2023-04-08T02:13:32;14.57;;;11.60;;
7375;SDS011;3728;42.266;24.944;2023-04-08T02:16:02;15.33;;;11.30;;
7375;SDS011;3728;42.266;24.944;2023-04-08T02:18:41;13.00;;;11.60;;
7375;SDS011;3728;42.266;24.944;2023-04-08T02:21:14;15.80;;;11.87;;
7375;SDS011;3728;42.266;24.944;2023-04-08T02:23:43;13.40;;;11.17;;
7375;SDS011;3728;42.266;24.944;2023-04-08T02:26:16;12.57;;;10.30;;
7375;SDS011;3728;42.266;24.944;2023-04-08T02:28:46;14.30;;;11.17;;
7375;SDS011;3728;42.266;24.944;2023-04-08T02:31:16;13.40;;;10.30;;
7375;SDS011;3728;42.266;24.944;2023-04-08T02:33:45;12.37;;;10.27;;
7375;SDS011;3728;42.266;24.944;2023-04-08T02:36:16;11.60;;;10.30;;
7375;SDS011;3728;42.266;24.944;2023-04-08T02:38:47;11.43;;;10.23;;
7375;SDS011;3728;42.266;24.944;2023-04-08T02:41:16;13.67;;;10.93;;
7375;SDS011;3728;42.266;24.944;2023-04-08T02:43:43;11.13;;;9.97;;
7375;SDS011;3728;42.266;24.944;2023-04-08T02:46:13;14.37;;;11.00;;
7375;SDS011;3728;42.266;24.944;2023-04-08T02:48:41;12.77;;;10.70;;
7375;SDS011;3728;42.266;24.944;2023-04-08T02:51:08;14.97;;;11.03;;
7375;SDS011;3728;42.266;24.944;2023-04-08T02:53:36;14.00;;;11.00;;
7375;SDS011;3728;42.266;24.944;2023-04-08T02:56:04;13.73;;;11.57;;
7375;SDS011;3728;42.266;24.944;2023-04-08T02:58:31;13.47;;;10.50;;
7375;SDS011;3728;42.266;24.944;2023-04-08T03:00:59;14.40;;;10.90;;
7375;SDS011;3728;42.266;24.944;2023-04-08T03:03:27;12.83;;;11.10;;
7375;SDS011;3728;42.266;24.944;2023-04-08T03:05:55;13.17;;;10.40;;
7375;SDS011;3728;42.266;24.944;2023-04-08T03:08:24;12.07;;;10.77;;
7375;SDS011;3728;42.266;24.944;2023-04-08T03:10:51;13.37;;;10.87;;
7375;SDS011;3728;42.266;24.944;2023-04-08T03:13:19;13.20;;;10.50;;
7375;SDS011;3728;42.266;24.944;2023-04-08T03:15:47;11.20;;;9.70;;
7375;SDS011;3728;42.266;24.944;2023-04-08T03:18:14;13.47;;;10.70;;
7375;SDS011;3728;42.266;24.944;2023-04-08T03:20:43;13.93;;;11.23;;
7375;SDS011;3728;42.266;24.944;2023-04-08T03:23:10;12.00;;;10.27;;
7375;SDS011;3728;42.266;24.944;2023-04-08T03:25:38;12.57;;;10.70;;
7375;SDS011;3728;42.266;24.944;2023-04-08T03:28:05;11.47;;;9.97;;
7375;SDS011;3728;42.266;24.944;2023-04-08T03:30:33;14.13;;;12.03;;
7375;SDS011;3728;42.266;24.944;2023-04-08T03:33:01;13.97;;;11.60;;
7375;SDS011;3728;42.266;24.944;2023-04-08T03:35:32;13.27;;;11.13;;
7375;SDS011;3728;42.266;24.944;2023-04-08T03:38:00;12.67;;;10.77;;
7375;SDS011;3728;42.266;24.944;2023-04-08T03:40:28;12.83;;;10.73;;
7375;SDS011;3728;42.266;24.944;2023-04-08T03:42:56;13.60;;;11.27;;
7375;SDS011;3728;42.266;24.944;2023-04-08T03:45:23;11.97;;;10.23;;
7375;SDS011;3728;42.266;24.944;2023-04-08T03:47:51;12.17;;;10.83;;
7375;SDS011;3728;42.266;24.944;2023-04-08T03:50:18;12.97;;;10.80;;
7375;SDS011;3728;42.266;24.944;2023-04-08T03:52:46;15.00;;;11.40;;
7375;SDS011;3728;42.266;24.944;2023-04-08T03:55:13;13.53;;;11.23;;
7375;SDS011;3728;42.266;24.944;2023-04-08T03:57:42;13.97;;;12.00;;
7375;SDS011;3728;42.266;24.944;2023-04-08T04:00:11;15.53;;;11.90;;
7375;SDS011;3728;42.266;24.944;2023-04-08T04:02:39;13.13;;;11.57;;
7375;SDS011;3728;42.266;24.944;2023-04-08T04:05:07;15.47;;;11.60;;
7375;SDS011;3728;42.266;24.944;2023-04-08T04:07:35;13.83;;;11.30;;
7375;SDS011;3728;42.266;24.944;2023-04-08T04:10:03;15.83;;;11.90;;
7375;SDS011;3728;42.266;24.944;2023-04-08T04:12:31;17.60;;;11.67;;
7375;SDS011;3728;42.266;24.944;2023-04-08T04:14:58;14.50;;;11.07;;
7375;SDS011;3728;42.266;24.944;2023-04-08T04:17:26;13.90;;;12.03;;
7375;SDS011;3728;42.266;24.944;2023-04-08T04:19:53;14.97;;;12.17;;
7375;SDS011;3728;42.266;24.944;2023-04-08T04:22:21;13.23;;;11.90;;
7375;SDS011;3728;42.266;24.944;2023-04-08T04:24:49;14.17;;;12.23;;
7375;SDS011;3728;42.266;24.944;2023-04-08T04:27:16;14.60;;;11.63;;
7375;SDS011;3728;42.266;24.944;2023-04-08T04:29:44;13.00;;;11.60;;
7375;SDS011;3728;42.266;24.944;2023-04-08T04:32:11;11.53;;;9.97;;
7375;SDS011;3728;42.266;24.944;2023-04-08T04:34:39;14.63;;;11.67;;
7375;SDS011;3728;42.266;24.944;2023-04-08T04:37:06;14.40;;;11.17;;
7375;SDS011;3728;42.266;24.944;2023-04-08T04:39:34;17.17;;;13.10;;
7375;SDS011;3728;42.266;24.944;2023-04-08T04:42:01;14.83;;;11.70;;
7375;SDS011;3728;42.266;24.944;2023-04-08T04:44:30;16.47;;;12.30;;
7375;SDS011;3728;42.266;24.944;2023-04-08T04:46:57;15.10;;;12.17;;
7375;SDS011;3728;42.266;24.944;2023-04-08T04:49:25;15.57;;;11.50;;
7375;SDS011;3728;42.266;24.944;2023-04-08T04:51:52;20.23;;;13.07;;
7375;SDS011;3728;42.266;24.944;2023-04-08T04:54:20;13.30;;;11.90;;
7375;SDS011;3728;42.266;24.944;2023-04-08T04:56:47;13.77;;;12.20;;
7375;SDS011;3728;42.266;24.944;2023-04-08T04:59:15;17.33;;;12.27;;
7375;SDS011;3728;42.266;24.944;2023-04-08T05:01:42;16.33;;;12.83;;
7375;SDS011;3728;42.266;24.944;2023-04-08T05:04:10;17.97;;;12.63;;
7375;SDS011;3728;42.266;24.944;2023-04-08T05:06:38;16.13;;;12.73;;
7375;SDS011;3728;42.266;24.944;2023-04-08T05:09:05;15.07;;;12.87;;
7375;SDS011;3728;42.266;24.944;2023-04-08T05:11:33;16.63;;;14.03;;
7375;SDS011;3728;42.266;24.944;2023-04-08T05:14:00;17.40;;;12.70;;
7375;SDS011;3728;42.266;24.944;2023-04-08T05:16:28;16.27;;;11.10;;
7375;SDS011;3728;42.266;24.944;2023-04-08T05:18:56;13.10;;;11.70;;
7375;SDS011;3728;42.266;24.944;2023-04-08T05:21:23;16.13;;;12.40;;
7375;SDS011;3728;42.266;24.944;2023-04-08T05:23:51;17.30;;;12.07;;
7375;SDS011;3728;42.266;24.944;2023-04-08T05:26:19;14.27;;;12.77;;
7375;SDS011;3728;42.266;24.944;2023-04-08T05:28:48;14.07;;;11.50;;
7375;SDS011;3728;42.266;24.944;2023-04-08T05:31:17;16.70;;;12.57;;
7375;SDS011;3728;42.266;24.944;2023-04-08T05:33:46;15.27;;;13.07;;
7375;SDS011;3728;42.266;24.944;2023-04-08T05:36:14;15.60;;;11.73;;
7375;SDS011;3728;42.266;24.944;2023-04-08T05:38:41;13.70;;;12.20;;
7375;SDS011;3728;42.266;24.944;2023-04-08T05:41:09;13.00;;;11.30;;
7375;SDS011;3728;42.266;24.944;2023-04-08T05:43:37;13.40;;;10.37;;
7375;SDS011;3728;42.266;24.944;2023-04-08T05:46:07;15.73;;;11.93;;
7375;SDS011;3728;42.266;24.944;2023-04-08T05:48:36;15.70;;;12.37;;
7375;SDS011;3728;42.266;24.944;2023-04-08T05:51:04;16.63;;;13.00;;
7375;SDS011;3728;42.266;24.944;2023-04-08T05:53:31;15.83;;;12.47;;
7375;SDS011;3728;42.266;24.944;2023-04-08T05:55:59;15.07;;;11.33;;
7375;SDS011;3728;42.266;24.944;2023-04-08T05:58:26;16.17;;;12.27;;
7375;SDS011;3728;42.266;24.944;2023-04-08T06:00:53;17.27;;;12.67;;
7375;SDS011;3728;42.266;24.944;2023-04-08T06:03:21;17.77;;;12.77;;
7375;SDS011;3728;42.266;24.944;2023-04-08T06:05:49;14.53;;;11.57;;
7375;SDS011;3728;42.266;24.944;2023-04-08T06:08:17;14.10;;;12.60;;
7375;SDS011;3728;42.266;24.944;2023-04-08T06:10:48;16.23;;;11.63;;
7375;SDS011;3728;42.266;24.944;2023-04-08T06:13:16;14.03;;;11.57;;
7375;SDS011;3728;42.266;24.944;2023-04-08T06:15:46;15.40;;;11.77;;
7375;SDS011;3728;42.266;24.944;2023-04-08T06:18:15;15.70;;;11.90;;
7375;SDS011;3728;42.266;24.944;2023-04-08T06:20:43;13.10;;;11.50;;
7375;SDS011;3728;42.266;24.944;2023-04-08T06:23:11;15.60;;;11.00;;
7375;SDS011;3728;42.266;24.944;2023-04-08T06:25:40;14.30;;;11.80;;
7375;SDS011;3728;42.266;24.944;2023-04-08T06:28:07;13.40;;;11.23;;
7375;SDS011;3728;42.266;24.944;2023-04-08T06:30:35;14.57;;;12.17;;
7375;SDS011;3728;42.266;24.944;2023-04-08T06:33:03;13.80;;;11.50;;
7375;SDS011;3728;42.266;24.944;2023-04-08T06:35:30;15.30;;;11.10;;
7375;SDS011;3728;42.266;24.944;2023-04-08T06:37:58;14.30;;;11.60;;
7375;SDS011;3728;42.266;24.944;2023-04-08T06:40:26;16.07;;;12.33;;
7375;SDS011;3728;42.266;24.944;2023-04-08T06:42:53;14.17;;;11.93;;
7375;SDS011;3728;42.266;24.944;2023-04-08T06:45:35;15.20;;;11.77;;
7375;SDS011;3728;42.266;24.944;2023-04-08T06:48:02;15.80;;;12.40;;
7375;SDS011;3728;42.266;24.944;2023-04-08T06:50:32;12.73;;;11.17;;
7375;SDS011;3728;42.266;24.944;2023-04-08T06:52:59;14.83;;;12.17;;
7375;SDS011;3728;42.266;24.944;2023-04-08T06:55:27;13.40;;;12.00;;
7375;SDS011;3728;42.266;24.944;2023-04-08T06:57:54;14.17;;;11.63;;
7375;SDS011;3728;42.266;24.944;2023-04-08T07:00:22;15.50;;;11.93;;
7375;SDS011;3728;42.266;24.944;2023-04-08T07:02:49;14.10;;;12.23;;
7375;SDS011;3728;42.266;24.944;2023-04-08T07:05:17;18.87;;;13.87;;
7375;SDS011;3728;42.266;24.944;2023-04-08T07:07:45;15.13;;;11.57;;
7375;SDS011;3728;42.266;24.944;2023-04-08T07:10:12;16.93;;;11.57;;
7375;SDS011;3728;42.266;24.944;2023-04-08T07:12:40;13.03;;;11.20;;
7375;SDS011;3728;42.266;24.944;2023-04-08T07:15:07;12.67;;;11.20;;
7375;SDS011;3728;42.266;24.944;2023-04-08T07:17:35;13.67;;;11.83;;
7375;SDS011;3728;42.266;24.944;2023-04-08T07:20:04;12.27;;;11.07;;
7375;SDS011;3728;42.266;24.944;2023-04-08T07:22:33;12.30;;;10.40;;
7375;SDS011;3728;42.266;24.944;2023-04-08T07:25:00;24.53;;;11.50;;
7375;SDS011;3728;42.266;24.944;2023-04-08T07:27:28;14.50;;;11.97;;
7375;SDS011;3728;42.266;24.944;2023-04-08T07:29:55;13.37;;;10.47;;
7375;SDS011;3728;42.266;24.944;2023-04-08T07:32:23;14.57;;;11.90;;
7375;SDS011;3728;42.266;24.944;2023-04-08T07:34:51;12.83;;;11.27;;
7375;SDS011;3728;42.266;24.944;2023-04-08T07:37:18;14.60;;;11.43;;
7375;SDS011;3728;42.266;24.944;2023-04-08T07:39:46;11.97;;;10.73;;
7375;SDS011;3728;42.266;24.944;2023-04-08T07:42:14;12.10;;;10.80;;
7375;SDS011;3728;42.266;24.944;2023-04-08T07:44:41;15.87;;;11.13;;
7375;SDS011;3728;42.266;24.944;2023-04-08T07:47:09;15.83;;;12.23;;
7375;SDS011;3728;42.266;24.944;2023-04-08T07:49:38;14.80;;;11.83;;
7375;SDS011;3728;42.266;24.944;2023-04-08T07:52:06;13.30;;;11.90;;
7375;SDS011;3728;42.266;24.944;2023-04-08T07:54:33;17.23;;;12.10;;
7375;SDS011;3728;42.266;24.944;2023-04-08T07:57:01;14.57;;;12.27;;
7375;SDS011;3728;42.266;24.944;2023-04-08T07:59:30;13.87;;;11.83;;
7375;SDS011;3728;42.266;24.944;2023-04-08T08:02:00;12.40;;;11.10;;
7375;SDS011;3728;42.266;24.944;2023-04-08T08:04:27;18.00;;;12.00;;
7375;SDS011;3728;42.266;24.944;2023-04-08T08:06:55;12.17;;;10.27;;
7375;SDS011;3728;42.266;24.944;2023-04-08T08:09:22;20.60;;;11.80;;
7375;SDS011;3728;42.266;24.944;2023-04-08T08:11:50;15.03;;;12.43;;
7375;SDS011;3728;42.266;24.944;2023-04-08T08:14:17;14.90;;;12.57;;
7375;SDS011;3728;42.266;24.944;2023-04-08T08:16:45;15.40;;;12.63;;
7375;SDS011;3728;42.266;24.944;2023-04-08T08:19:14;17.07;;;12.90;;
7375;SDS011;3728;42.266;24.944;2023-04-08T08:21:42;17.80;;;12.90;;
7375;SDS011;3728;42.266;24.944;2023-04-08T08:24:10;14.77;;;13.17;;
7375;SDS011;3728;42.266;24.944;2023-04-08T08:26:38;17.27;;;13.60;;
7375;SDS011;3728;42.266;24.944;2023-04-08T08:29:05;39.70;;;22.73;;
7375;SDS011;3728;42.266;24.944;2023-04-08T08:31:34;23.73;;;15.37;;
7375;SDS011;3728;42.266;24.944;2023-04-08T08:34:01;16.37;;;13.10;;
7375;SDS011;3728;42.266;24.944;2023-04-08T08:36:29;14.93;;;13.30;;
7375;SDS011;3728;42.266;24.944;2023-04-08T08:38:59;15.47;;;13.53;;
7375;SDS011;3728;42.266;24.944;2023-04-08T08:41:31;15.20;;;13.40;;
7375;SDS011;3728;42.266;24.944;2023-04-08T08:44:04;18.47;;;13.67;;
7375;SDS011;3728;42.266;24.944;2023-04-08T08:46:33;14.63;;;13.00;;
7375;SDS011;3728;42.266;24.944;2023-04-08T08:49:01;16.63;;;12.17;;
7375;SDS011;3728;42.266;24.944;2023-04-08T08:51:29;16.97;;;12.27;;
7375;SDS011;3728;42.266;24.944;2023-04-08T08:54:02;15.23;;;13.63;;
7375;SDS011;3728;42.266;24.944;2023-04-08T08:56:32;18.20;;;13.80;;
7375;SDS011;3728;42.266;24.944;2023-04-08T08:59:00;14.73;;;12.10;;
7375;SDS011;3728;42.266;24.944;2023-04-08T09:01:35;18.27;;;14.03;;
7375;SDS011;3728;42.266;24.944;2023-04-08T09:04:11;18.50;;;15.33;;
7375;SDS011;3728;42.266;24.944;2023-04-08T09:06:43;13.17;;;11.77;;
7375;SDS011;3728;42.266;24.944;2023-04-08T09:09:16;18.50;;;14.10;;
7375;SDS011;3728;42.266;24.944;2023-04-08T09:11:44;15.50;;;13.03;;
7375;SDS011;3728;42.266;24.944;2023-04-08T09:14:19;15.83;;;12.10;;
7375;SDS011;3728;42.266;24.944;2023-04-08T09:16:54;12.33;;;10.97;;
7375;SDS011;3728;42.266;24.944;2023-04-08T09:19:21;12.83;;;11.50;;
7375;SDS011;3728;42.266;24.944;2023-04-08T09:24:33;11.93;;;10.47;;
7375;SDS011;3728;42.266;24.944;2023-04-08T09:27:03;12.33;;;10.10;;
7375;SDS011;3728;42.266;24.944;2023-04-08T09:29:35;10.80;;;9.47;;
7375;SDS011;3728;42.266;24.944;2023-04-08T09:32:05;12.57;;;9.53;;
7375;SDS011;3728;42.266;24.944;2023-04-08T09:34:33;10.87;;;9.77;;
7375;SDS011;3728;42.266;24.944;2023-04-08T09:37:00;11.97;;;10.50;;
7375;SDS011;3728;42.266;24.944;2023-04-08T09:39:28;11.00;;;9.77;;
7375;SDS011;3728;42.266;24.944;2023-04-08T09:41:57;12.03;;;10.13;;
7375;SDS011;3728;42.266;24.944;2023-04-08T09:44:27;10.57;;;9.37;;
7375;SDS011;3728;42.266;24.944;2023-04-08T09:49:57;11.00;;;9.90;;
7375;SDS011;3728;42.266;24.944;2023-04-08T09:52:31;11.23;;;10.13;;
7375;SDS011;3728;42.266;24.944;2023-04-08T09:55:11;11.43;;;10.33;;
7375;SDS011;3728;42.266;24.944;2023-04-08T09:57:52;10.80;;;9.70;;
7375;SDS011;3728;42.266;24.944;2023-04-08T10:00:29;10.97;;;9.87;;
7375;SDS011;3728;42.266;24.944;2023-04-08T10:03:09;10.43;;;9.40;;
7375;SDS011;3728;42.266;24.944;2023-04-08T10:06:01;9.40;;;8.50;;
7375;SDS011;3728;42.266;24.944;2023-04-08T10:08:29;10.10;;;8.80;;
7375;SDS011;3728;42.266;24.944;2023-04-08T10:11:01;9.57;;;8.57;;
7375;SDS011;3728;42.266;24.944;2023-04-08T10:13:31;9.10;;;8.13;;
7375;SDS011;3728;42.266;24.944;2023-04-08T10:18:50;9.30;;;8.40;;
7375;SDS011;3728;42.266;24.944;2023-04-08T10:21:37;9.37;;;8.37;;
7375;SDS011;3728;42.266;24.944;2023-04-08T10:24:13;9.33;;;8.43;;
7375;SDS011;3728;42.266;24.944;2023-04-08T10:26:42;10.40;;;8.30;;
7375;SDS011;3728;42.266;24.944;2023-04-08T10:31:45;8.43;;;7.63;;
7375;SDS011;3728;42.266;24.944;2023-04-08T10:34:20;8.23;;;7.00;;
7375;SDS011;3728;42.266;24.944;2023-04-08T10:36:53;10.13;;;7.67;;
7375;SDS011;3728;42.266;24.944;2023-04-08T10:39:24;8.00;;;7.20;;
7375;SDS011;3728;42.266;24.944;2023-04-08T10:41:54;10.47;;;6.63;;
7375;SDS011;3728;42.266;24.944;2023-04-08T10:44:24;8.60;;;7.53;;
7375;SDS011;3728;42.266;24.944;2023-04-08T10:46:52;7.43;;;6.73;;
7375;SDS011;3728;42.266;24.944;2023-04-08T10:49:21;7.57;;;6.87;;
7375;SDS011;3728;42.266;24.944;2023-04-08T10:51:49;8.13;;;6.97;;
7375;SDS011;3728;42.266;24.944;2023-04-08T10:54:17;6.93;;;6.17;;
7375;SDS011;3728;42.266;24.944;2023-04-08T10:56:47;7.97;;;6.83;;
7375;SDS011;3728;42.266;24.944;2023-04-08T10:59:27;6.47;;;5.87;;
7375;SDS011;3728;42.266;24.944;2023-04-08T11:01:57;6.60;;;6.00;;
7375;SDS011;3728;42.266;24.944;2023-04-08T11:04:30;8.70;;;6.43;;
7375;SDS011;3728;42.266;24.944;2023-04-08T11:07:01;7.43;;;6.37;;
7375;SDS011;3728;42.266;24.944;2023-04-08T11:09:34;6.00;;;5.40;;
7375;SDS011;3728;42.266;24.944;2023-04-08T11:12:02;7.27;;;6.33;;
7375;SDS011;3728;42.266;24.944;2023-04-08T11:14:30;6.93;;;6.23;;
7375;SDS011;3728;42.266;24.944;2023-04-08T11:16:59;9.27;;;6.40;;
7375;SDS011;3728;42.266;24.944;2023-04-08T11:19:31;6.80;;;6.10;;
7375;SDS011;3728;42.266;24.944;2023-04-08T11:22:01;10.47;;;6.33;;
7375;SDS011;3728;42.266;24.944;2023-04-08T11:24:33;7.27;;;6.20;;
7375;SDS011;3728;42.266;24.944;2023-04-08T11:27:03;6.40;;;5.80;;
7375;SDS011;3728;42.266;24.944;2023-04-08T11:29:33;6.70;;;6.10;;
7375;SDS011;3728;42.266;24.944;2023-04-08T11:32:01;6.33;;;5.73;;
7375;SDS011;3728;42.266;24.944;2023-04-08T11:34:33;7.43;;;5.53;;
7375;SDS011;3728;42.266;24.944;2023-04-08T11:37:06;7.13;;;6.00;;
7375;SDS011;3728;42.266;24.944;2023-04-08T11:39:39;9.23;;;5.67;;
7375;SDS011;3728;42.266;24.944;2023-04-08T11:42:25;6.00;;;5.40;;
7375;SDS011;3728;42.266;24.944;2023-04-08T11:44:57;9.57;;;8.47;;
7375;SDS011;3728;42.266;24.944;2023-04-08T11:47:31;6.47;;;5.97;;
7375;SDS011;3728;42.266;24.944;2023-04-08T11:50:03;11.60;;;10.10;;
7375;SDS011;3728;42.266;24.944;2023-04-08T11:55:28;8.17;;;5.70;;
7375;SDS011;3728;42.266;24.944;2023-04-08T11:58:03;6.20;;;5.60;;
7375;SDS011;3728;42.266;24.944;2023-04-08T12:00:32;7.07;;;5.60;;
7375;SDS011;3728;42.266;24.944;2023-04-08T12:03:06;6.20;;;5.60;;
7375;SDS011;3728;42.266;24.944;2023-04-08T12:05:34;6.60;;;5.43;;
7375;SDS011;3728;42.266;24.944;2023-04-08T12:08:02;7.53;;;5.63;;
7375;SDS011;3728;42.266;24.944;2023-04-08T12:10:32;6.50;;;5.90;;
7375;SDS011;3728;42.266;24.944;2023-04-08T12:12:59;6.40;;;5.80;;
7375;SDS011;3728;42.266;24.944;2023-04-08T12:15:26;6.27;;;5.67;;
7375;SDS011;3728;42.266;24.944;2023-04-08T12:17:54;5.77;;;4.87;;
7375;SDS011;3728;42.266;24.944;2023-04-08T12:20:22;6.20;;;5.60;;
7375;SDS011;3728;42.266;24.944;2023-04-08T12:22:50;7.47;;;6.20;;
7375;SDS011;3728;42.266;24.944;2023-04-08T12:25:17;6.30;;;5.70;;
7375;SDS011;3728;42.266;24.944;2023-04-08T12:27:45;6.80;;;6.10;;
7375;SDS011;3728;42.266;24.944;2023-04-08T12:30:12;9.50;;;8.50;;
7375;SDS011;3728;42.266;24.944;2023-04-08T12:32:43;7.23;;;6.50;;
7375;SDS011;3728;42.266;24.944;2023-04-08T12:35:13;6.37;;;5.47;;
7375;SDS011;3728;42.266;24.944;2023-04-08T12:37:41;6.03;;;5.20;;
7375;SDS011;3728;42.266;24.944;2023-04-08T12:40:09;7.53;;;5.47;;
7375;SDS011;3728;42.266;24.944;2023-04-08T12:42:37;5.93;;;5.43;;
7375;SDS011;3728;42.266;24.944;2023-04-08T12:45:05;6.47;;;5.83;;
7375;SDS011;3728;42.266;24.944;2023-04-08T12:47:35;6.57;;;5.90;;
7375;SDS011;3728;42.266;24.944;2023-04-08T12:50:03;5.87;;;5.27;;
7375;SDS011;3728;42.266;24.944;2023-04-08T12:52:33;6.73;;;6.13;;
7375;SDS011;3728;42.266;24.944;2023-04-08T12:55:00;5.80;;;5.30;;
7375;SDS011;3728;42.266;24.944;2023-04-08T12:57:29;6.73;;;6.00;;
7375;SDS011;3728;42.266;24.944;2023-04-08T12:59:57;6.73;;;6.00;;
7375;SDS011;3728;42.266;24.944;2023-04-08T13:02:25;6.20;;;5.70;;
7375;SDS011;3728;42.266;24.944;2023-04-08T13:04:53;6.40;;;5.80;;
7375;SDS011;3728;42.266;24.944;2023-04-08T13:07:20;6.43;;;5.83;;
7375;SDS011;3728;42.266;24.944;2023-04-08T13:09:47;6.27;;;5.50;;
7375;SDS011;3728;42.266;24.944;2023-04-08T13:12:17;6.13;;;5.50;;
7375;SDS011;3728;42.266;24.944;2023-04-08T13:14:44;5.30;;;4.90;;
7375;SDS011;3728;42.266;24.944;2023-04-08T13:17:14;5.73;;;5.13;;
7375;SDS011;3728;42.266;24.944;2023-04-08T13:19:41;6.23;;;5.47;;
7375;SDS011;3728;42.266;24.944;2023-04-08T13:22:09;6.00;;;5.47;;
7375;SDS011;3728;42.266;24.944;2023-04-08T13:24:36;6.20;;;5.47;;
7375;SDS011;3728;42.266;24.944;2023-04-08T13:27:04;6.43;;;5.83;;
7375;SDS011;3728;42.266;24.944;2023-04-08T13:29:31;7.03;;;6.43;;
7375;SDS011;3728;42.266;24.944;2023-04-08T13:31:59;16.97;;;6.70;;
7375;SDS011;3728;42.266;24.944;2023-04-08T13:34:27;7.50;;;5.90;;
7375;SDS011;3728;42.266;24.944;2023-04-08T13:36:55;6.60;;;5.77;;
7375;SDS011;3728;42.266;24.944;2023-04-08T13:39:22;6.70;;;5.60;;
7375;SDS011;3728;42.266;24.944;2023-04-08T13:41:49;6.63;;;6.03;;
7375;SDS011;3728;42.266;24.944;2023-04-08T13:44:17;6.97;;;5.97;;
7375;SDS011;3728;42.266;24.944;2023-04-08T13:46:45;8.70;;;7.40;;
7375;SDS011;3728;42.266;24.944;2023-04-08T13:49:12;8.77;;;7.43;;
7375;SDS011;3728;42.266;24.944;2023-04-08T13:51:42;7.97;;;6.43;;
7375;SDS011;3728;42.266;24.944;2023-04-08T13:54:12;6.70;;;6.10;;
7375;SDS011;3728;42.266;24.944;2023-04-08T13:56:39;6.80;;;6.00;;
7375;SDS011;3728;42.266;24.944;2023-04-08T13:59:06;7.20;;;6.60;;
7375;SDS011;3728;42.266;24.944;2023-04-08T14:01:35;6.83;;;6.17;;
7375;SDS011;3728;42.266;24.944;2023-04-08T14:04:03;7.93;;;6.20;;
7375;SDS011;3728;42.266;24.944;2023-04-08T14:06:39;6.20;;;5.60;;
7375;SDS011;3728;42.266;24.944;2023-04-08T14:09:10;7.23;;;6.53;;
7375;SDS011;3728;42.266;24.944;2023-04-08T14:11:39;7.20;;;6.50;;
7375;SDS011;3728;42.266;24.944;2023-04-08T14:14:07;9.90;;;6.27;;
7375;SDS011;3728;42.266;24.944;2023-04-08T14:16:35;9.37;;;5.97;;
7375;SDS011;3728;42.266;24.944;2023-04-08T14:19:04;6.63;;;6.03;;
7375;SDS011;3728;42.266;24.944;2023-04-08T14:21:32;6.97;;;6.37;;
7375;SDS011;3728;42.266;24.944;2023-04-08T14:24:04;7.07;;;6.37;;
7375;SDS011;3728;42.266;24.944;2023-04-08T14:26:32;8.30;;;6.00;;
7375;SDS011;3728;42.266;24.944;2023-04-08T14:29:02;6.77;;;6.17;;
7375;SDS011;3728;42.266;24.944;2023-04-08T14:31:31;6.87;;;6.17;;
7375;SDS011;3728;42.266;24.944;2023-04-08T14:34:00;8.70;;;6.07;;
7375;SDS011;3728;42.266;24.944;2023-04-08T14:36:29;7.00;;;5.87;;
7375;SDS011;3728;42.266;24.944;2023-04-08T14:39:00;6.87;;;5.00;;
7375;SDS011;3728;42.266;24.944;2023-04-08T14:41:28;6.53;;;3.77;;
7375;SDS011;3728;42.266;24.944;2023-04-08T14:43:55;4.60;;;4.20;;
7375;SDS011;3728;42.266;24.944;2023-04-08T14:46:24;7.70;;;4.53;;
7375;SDS011;3728;42.266;24.944;2023-04-08T14:48:57;8.33;;;5.40;;
7375;SDS011;3728;42.266;24.944;2023-04-08T14:51:24;6.57;;;4.13;;
7375;SDS011;3728;42.266;24.944;2023-04-08T14:53:52;4.77;;;3.67;;
7375;SDS011;3728;42.266;24.944;2023-04-08T14:56:20;7.27;;;4.40;;
7375;SDS011;3728;42.266;24.944;2023-04-08T14:58:47;4.47;;;4.07;;
7375;SDS011;3728;42.266;24.944;2023-04-08T15:01:15;2.80;;;2.47;;
7375;SDS011;3728;42.266;24.944;2023-04-08T15:03:43;3.67;;;3.37;;
7375;SDS011;3728;42.266;24.944;2023-04-08T15:06:10;3.70;;;3.40;;
7375;SDS011;3728;42.266;24.944;2023-04-08T15:08:42;4.07;;;3.63;;
7375;SDS011;3728;42.266;24.944;2023-04-08T15:11:11;3.83;;;3.57;;
7375;SDS011;3728;42.266;24.944;2023-04-08T15:13:39;4.20;;;3.80;;
7375;SDS011;3728;42.266;24.944;2023-04-08T15:16:07;3.70;;;3.40;;